This is the latest recevied weather packets stored in our database for station/object K7YVO. If no packets are shown the sender has not sent any weather packets the latest 10 day(s).
| Time | Temp. | Humidity | Pressure | Rain* | Wind** | Luminosity | Snow |
|---|---|---|---|---|---|---|---|
| 1777871020 | 22.22° C | 53% | 1010.5 hPa | 0 mm | - | 0 W/m² | - |
| 1777870717 | 22.78° C | 52% | 1010.4 hPa | 0 mm | - | 0 W/m² | - |
| 1777870412 | 22.78° C | 51% | 1010.4 hPa | 0 mm | - | 0 W/m² | - |
| 1777870109 | 22.78° C | 50% | 1010.3 hPa | 0 mm | - | 0 W/m² | - |
| 1777869806 | 22.78° C | 50% | 1010.4 hPa | 0 mm | - | 0 W/m² | - |
| 1777869504 | 23.33° C | 49% | 1010.3 hPa | 0 mm | - | 0 W/m² | - |
| 1777869200 | 23.33° C | 49% | 1010.3 hPa | 0 mm | - | 0 W/m² | - |
| 1777868899 | 23.33° C | 49% | 1010.2 hPa | 0 mm | - | 0 W/m² | - |
| 1777868594 | 23.89° C | 49% | 1010.1 hPa | 0 mm | - | 0 W/m² | - |
| 1777868291 | 24.44° C | 48% | 1010.2 hPa | 0 mm | - | 0 W/m² | - |
| 1777867987 | 25° C | 45% | 1010.2 hPa | 0 mm | - | 0 W/m² | - |
| 1777867684 | 25° C | 45% | 1010.1 hPa | 0 mm | - | 0 W/m² | - |
| 1777867381 | 25.56° C | 44% | 1010 hPa | 0 mm | - | 0 W/m² | - |
| 1777867077 | 25.56° C | 44% | 1009.8 hPa | 0 mm | - | 0 W/m² | - |
| 1777866774 | 25.56° C | 43% | 1009.8 hPa | 0 mm | - | 0 W/m² | - |
| 1777866471 | 26.11° C | 42% | 1009.6 hPa | 0 mm | - | 0 W/m² | - |
| 1777865563 | 26.67° C | 40% | 1009.5 hPa | 0 mm | - | 0 W/m² | - |
| 1777864654 | 27.22° C | 39% | 1009.5 hPa | 0 mm | - | 3 W/m² | - |
| 1777864352 | 27.22° C | 39% | 1009.5 hPa | 0 mm | - | 5 W/m² | - |
| 1777862835 | 29.44° C | 36% | 1009.6 hPa | 0 mm | - | 20 W/m² | - |
| 1777846771 | 32.22° C | 29% | 1011.2 hPa | 0 mm | - | 616 W/m² | - |
| 1777846469 | 32.22° C | 28% | 1011.3 hPa | 0 mm | - | 626 W/m² | - |
| 1777845256 | 31.11° C | 29% | 1011.4 hPa | 0 mm | - | 658 W/m² | - |
| 1777844046 | 31.67° C | 30% | 1011.6 hPa | 0 mm | - | 683 W/m² | - |
| 1777842834 | 30.56° C | 32% | 1011.8 hPa | 0 mm | - | 703 W/m² | - |
* Rain latest hour (hover to see other rain measurements)
** Current wind speed in m/s (hover to see current wind gust speed)